createdAt,value
2022-09-26T00:00:59.270Z,99.99
2022-09-26T00:01:59.261Z,99.99
2022-09-26T00:02:59.195Z,99.99
2022-09-26T00:03:59.198Z,99.99
2022-09-26T00:04:59.176Z,99.99
2022-09-26T00:05:59.195Z,99.99
2022-09-26T00:06:59.166Z,99.99
2022-09-26T00:07:59.147Z,99.99
2022-09-26T00:08:59.175Z,99.99
2022-09-26T00:09:59.126Z,99.99
2022-09-26T00:10:59.118Z,99.99
2022-09-26T00:11:59.128Z,99.99
2022-09-26T00:12:59.097Z,99.99
2022-09-26T00:13:59.088Z,99.99
2022-09-26T00:14:59.068Z,99.99
2022-09-26T00:15:59.060Z,99.99
2022-09-26T00:16:59.118Z,99.99
2022-09-26T00:17:59.079Z,99.99
2022-09-26T00:18:59.047Z,99.99
2022-09-26T00:19:59.027Z,99.99
2022-09-26T00:20:59.010Z,99.99
2022-09-26T00:21:59.000Z,99.99
2022-09-26T00:22:58.991Z,99.99
2022-09-26T00:23:59.013Z,99.99
2022-09-26T00:24:58.961Z,99.99
2022-09-26T00:25:58.960Z,99.99
2022-09-26T00:26:58.951Z,99.99
2022-09-26T00:27:58.940Z,99.99
2022-09-26T00:28:58.922Z,99.99
2022-09-26T00:29:58.951Z,99.99
2022-09-26T00:30:58.932Z,99.99
2022-09-26T00:31:58.901Z,99.99
2022-09-26T00:32:58.883Z,99.99
2022-09-26T00:33:58.888Z,99.99
2022-09-26T00:34:58.872Z,99.99
2022-09-26T00:35:58.903Z,99.99
2022-09-26T00:36:58.843Z,99.99
2022-09-26T00:37:58.837Z,99.99
2022-09-26T00:38:58.815Z,99.99
2022-09-26T00:39:58.814Z,99.99
2022-09-26T00:40:58.855Z,99.99
2022-09-26T00:41:58.814Z,99.99
2022-09-26T00:42:58.776Z,99.99
2022-09-26T00:43:58.774Z,99.99
2022-09-26T00:44:58.764Z,99.99
2022-09-26T00:45:58.819Z,99.99
2022-09-26T00:46:58.738Z,99.99
2022-09-26T00:47:58.766Z,99.99
2022-09-26T00:48:58.721Z,99.99
2022-09-26T00:49:58.717Z,99.99
2022-09-26T00:50:58.697Z,99.99
2022-09-26T00:51:58.689Z,99.99
2022-09-26T00:52:58.685Z,99.99
2022-09-26T00:53:58.688Z,99.99
2022-09-26T00:54:58.657Z,99.99
2022-09-26T00:55:58.645Z,99.99
2022-09-26T00:56:58.638Z,99.99
2022-09-26T00:57:58.627Z,99.99
2022-09-26T00:58:58.617Z,99.99
2022-09-26T00:59:58.638Z,99.99
2022-09-26T01:00:58.710Z,99.99
2022-09-26T01:01:58.691Z,99.99
2022-09-26T01:02:58.572Z,99.99
2022-09-26T01:03:58.563Z,99.99
2022-09-26T01:04:58.550Z,99.99
2022-09-26T01:05:58.579Z,99.99
2022-09-26T01:06:58.531Z,99.99
2022-09-26T01:07:58.512Z,99.99
2022-09-26T01:08:58.523Z,99.99
2022-09-26T01:09:58.499Z,99.99
2022-09-26T01:10:58.491Z,99.99
2022-09-26T01:11:58.502Z,99.99
2022-09-26T01:12:58.471Z,99.99
2022-09-26T01:13:58.465Z,99.99
2022-09-26T01:14:58.445Z,99.99
2022-09-26T01:15:58.433Z,99.99
2022-09-26T01:16:58.466Z,99.99
2022-09-26T01:17:58.443Z,99.99
2022-09-26T01:18:58.441Z,99.99
2022-09-26T01:19:58.394Z,99.99
2022-09-26T01:20:58.387Z,99.99
2022-09-26T01:21:58.380Z,99.99
2022-09-26T01:22:58.363Z,99.99
2022-09-26T01:23:58.382Z,99.99
2022-09-26T01:24:58.346Z,99.99
2022-09-26T01:25:58.333Z,99.99
2022-09-26T01:26:58.338Z,99.99
2022-09-26T01:27:58.317Z,99.99
2022-09-26T01:28:58.297Z,99.99
2022-09-26T01:29:58.314Z,99.99
2022-09-26T01:30:58.378Z,99.99
2022-09-26T01:31:58.267Z,99.99
2022-09-26T01:32:58.266Z,99.99
2022-09-26T01:33:58.253Z,99.99
2022-09-26T01:34:58.237Z,99.99
2022-09-26T01:35:58.258Z,99.99
2022-09-26T01:36:58.217Z,99.99
2022-09-26T01:37:58.208Z,99.99
2022-09-26T01:38:58.198Z,99.99
2022-09-26T01:39:58.185Z,99.99
2022-09-26T01:40:58.207Z,99.99
2022-09-26T01:41:58.200Z,99.99
2022-09-26T01:42:58.160Z,99.99
2022-09-26T01:43:58.141Z,99.99
2022-09-26T01:44:59.988Z,99.99
2022-09-26T01:45:58.151Z,99.99
2022-09-26T01:46:58.111Z,99.99
2022-09-26T01:47:58.129Z,99.99
2022-09-26T01:48:58.098Z,99.99
2022-09-26T01:49:58.087Z,99.99
2022-09-26T01:50:58.071Z,99.99
2022-09-26T01:51:58.062Z,99.99
2022-09-26T01:52:58.053Z,99.99
2022-09-26T01:53:58.070Z,99.99
2022-09-26T01:54:58.032Z,99.99
2022-09-26T01:55:58.033Z,99.99
2022-09-26T01:56:58.004Z,99.99
2022-09-26T01:57:57.999Z,99.99
2022-09-26T01:58:58.000Z,99.99
2022-09-26T01:59:58.008Z,99.99
2022-09-26T02:00:58.053Z,99.99
2022-09-26T02:01:58.024Z,99.99
2022-09-26T02:02:57.943Z,99.99
2022-09-26T02:03:57.935Z,99.99
2022-09-26T02:04:57.935Z,99.99
2022-09-26T02:05:57.945Z,99.99
2022-09-26T02:06:57.908Z,99.99
2022-09-26T02:07:57.894Z,99.99
2022-09-26T02:08:57.877Z,99.99
2022-09-26T02:09:57.867Z,99.99
2022-09-26T02:10:57.856Z,99.99
2022-09-26T02:11:57.895Z,99.99
2022-09-26T02:12:57.836Z,99.99
2022-09-26T02:13:57.838Z,99.99
2022-09-26T02:14:57.827Z,99.99
2022-09-26T02:15:57.807Z,99.99
2022-09-26T02:16:57.869Z,99.99
2022-09-26T02:17:57.809Z,99.99
2022-09-26T02:18:57.779Z,99.99
2022-09-26T02:19:57.767Z,99.99
2022-09-26T02:20:57.756Z,99.99
2022-09-26T02:21:57.747Z,99.99
2022-09-26T02:22:57.742Z,99.99
2022-09-26T02:23:57.760Z,99.99
2022-09-26T02:24:57.719Z,99.99
2022-09-26T02:25:57.708Z,99.99
2022-09-26T02:26:57.700Z,99.99
2022-09-26T02:27:57.682Z,99.99
2022-09-26T02:28:57.672Z,99.99
2022-09-26T02:29:57.691Z,99.99
2022-09-26T02:30:57.662Z,99.99
2022-09-26T02:31:57.679Z,99.99
2022-09-26T02:32:57.632Z,99.99
2022-09-26T02:33:57.622Z,99.99
2022-09-26T02:34:57.612Z,99.99
2022-09-26T02:35:57.626Z,99.99
2022-09-26T02:36:57.596Z,99.99
2022-09-26T02:37:57.582Z,99.99
2022-09-26T02:38:57.572Z,99.99
2022-09-26T02:39:57.553Z,99.99
2022-09-26T02:40:57.589Z,99.99
2022-09-26T02:41:57.587Z,99.99
2022-09-26T02:42:57.533Z,99.99
2022-09-26T02:43:57.514Z,99.99
2022-09-26T02:44:57.504Z,99.99
2022-09-26T02:45:57.565Z,99.99
2022-09-26T02:46:57.486Z,99.99
2022-09-26T02:47:57.505Z,99.99
2022-09-26T02:48:57.468Z,99.99
2022-09-26T02:49:57.446Z,99.99
2022-09-26T02:50:57.445Z,99.99
2022-09-26T02:51:57.428Z,99.99
2022-09-26T02:52:57.425Z,99.99
2022-09-26T02:53:57.444Z,99.99
2022-09-26T02:54:57.397Z,99.99
2022-09-26T02:55:57.387Z,99.99
2022-09-26T02:56:57.377Z,99.99
2022-09-26T02:57:57.371Z,99.99
2022-09-26T02:58:57.360Z,99.99
2022-09-26T02:59:57.370Z,99.99
2022-09-26T03:00:57.368Z,99.99
2022-09-26T03:01:57.326Z,99.99
2022-09-26T03:02:57.320Z,99.99
2022-09-26T03:03:57.300Z,99.99
2022-09-26T03:04:57.330Z,99.99
2022-09-26T03:05:57.311Z,99.99
2022-09-26T03:06:57.278Z,99.99
2022-09-26T03:07:57.261Z,99.99
2022-09-26T03:08:57.261Z,99.99
2022-09-26T03:09:57.242Z,99.99
2022-09-26T03:10:57.232Z,99.99
2022-09-26T03:11:57.251Z,99.99
2022-09-26T03:12:57.212Z,99.99
2022-09-26T03:13:57.202Z,99.99
2022-09-26T03:14:58.808Z,99.99
2022-09-26T03:15:57.239Z,99.99
2022-09-26T03:16:57.172Z,99.99
2022-09-26T03:17:57.182Z,99.99
2022-09-26T03:18:57.153Z,99.99
2022-09-26T03:19:57.134Z,99.99
2022-09-26T03:20:57.134Z,99.99
2022-09-26T03:21:57.115Z,99.99
2022-09-26T03:22:57.112Z,99.99
2022-09-26T03:23:57.124Z,99.99
2022-09-26T03:24:57.084Z,99.99
2022-09-26T03:25:57.075Z,99.99
2022-09-26T03:26:57.066Z,99.99
2022-09-26T03:27:57.054Z,99.99
2022-09-26T03:28:57.045Z,99.99
2022-09-26T03:29:57.063Z,99.99
2022-09-26T03:30:57.026Z,99.99
2022-09-26T03:31:57.053Z,99.99
2022-09-26T03:32:57.005Z,99.99
2022-09-26T03:33:56.989Z,99.99
2022-09-26T03:34:56.989Z,99.99
2022-09-26T03:35:57.005Z,99.99
2022-09-26T03:36:56.966Z,99.99
2022-09-26T03:37:56.951Z,99.99
2022-09-26T03:38:56.949Z,99.99
2022-09-26T03:39:56.926Z,99.99
2022-09-26T03:40:56.986Z,99.99
2022-09-26T03:41:56.938Z,99.99
2022-09-26T03:42:56.900Z,99.99
2022-09-26T03:43:56.888Z,99.99
2022-09-26T03:44:56.879Z,99.99
2022-09-26T03:45:56.908Z,99.99
2022-09-26T03:46:56.860Z,99.99
2022-09-26T03:47:56.889Z,99.99
2022-09-26T03:48:56.840Z,99.99
2022-09-26T03:49:56.829Z,99.99
2022-09-26T03:50:56.819Z,99.99
2022-09-26T03:51:56.802Z,99.99
2022-09-26T03:52:56.798Z,99.99
2022-09-26T03:53:56.808Z,99.99
2022-09-26T03:54:56.774Z,99.99
2022-09-26T03:55:56.760Z,99.99
2022-09-26T03:56:56.752Z,99.99
2022-09-26T03:57:56.740Z,99.99
2022-09-26T03:58:56.734Z,99.99
2022-09-26T03:59:56.751Z,99.99
2022-09-26T04:00:56.741Z,99.99
2022-09-26T04:01:56.743Z,99.99
2022-09-26T04:02:56.706Z,99.99
2022-09-26T04:03:56.675Z,99.99
2022-09-26T04:04:56.670Z,99.99
2022-09-26T04:05:56.689Z,99.99
2022-09-26T04:06:56.645Z,99.99
2022-09-26T04:07:56.634Z,99.99
2022-09-26T04:08:56.634Z,99.99
2022-09-26T04:09:56.616Z,99.99
2022-09-26T04:10:56.605Z,99.99
2022-09-26T04:11:56.625Z,99.99
2022-09-26T04:12:56.592Z,99.99
2022-09-26T04:13:56.574Z,99.99
2022-09-26T04:14:56.566Z,99.99
2022-09-26T04:15:56.582Z,99.99
2022-09-26T04:16:56.546Z,99.99
2022-09-26T04:17:56.556Z,99.99
2022-09-26T04:18:56.593Z,99.99
2022-09-26T04:19:56.519Z,99.99
2022-09-26T04:20:56.498Z,99.99
2022-09-26T04:21:56.489Z,99.99
2022-09-26T04:22:56.488Z,99.99
2022-09-26T04:23:56.521Z,99.99
2022-09-26T04:24:56.467Z,99.99
2022-09-26T04:25:56.451Z,99.99
2022-09-26T04:26:56.441Z,99.99
2022-09-26T04:27:56.419Z,99.99
2022-09-26T04:28:56.426Z,99.99
2022-09-26T04:29:56.438Z,99.99
2022-09-26T04:30:56.397Z,99.99
2022-09-26T04:31:56.431Z,99.99
2022-09-26T04:32:56.383Z,99.99
2022-09-26T04:33:56.371Z,99.99
2022-09-26T04:34:56.361Z,99.99
2022-09-26T04:35:56.371Z,99.99
2022-09-26T04:36:56.330Z,99.99
2022-09-26T04:37:56.322Z,99.99
2022-09-26T04:38:56.323Z,99.99
2022-09-26T04:39:56.292Z,99.99
2022-09-26T04:40:56.362Z,99.99
2022-09-26T04:41:56.313Z,99.99
2022-09-26T04:42:56.270Z,99.99
2022-09-26T04:43:56.212Z,99.99
2022-09-26T04:44:56.203Z,99.99
2022-09-26T04:45:56.262Z,99.99
2022-09-26T04:46:56.176Z,99.99
2022-09-26T04:47:56.185Z,99.99
2022-09-26T04:48:56.164Z,99.99
2022-09-26T04:49:56.144Z,99.99
2022-09-26T04:50:56.138Z,99.99
2022-09-26T04:51:56.115Z,99.99
2022-09-26T04:52:56.113Z,99.99
2022-09-26T04:53:56.155Z,99.99
2022-09-26T04:54:56.095Z,99.99
2022-09-26T04:55:56.085Z,99.99
2022-09-26T04:56:56.066Z,99.99
2022-09-26T04:57:56.056Z,99.99
2022-09-26T04:58:56.065Z,99.99
2022-09-26T04:59:56.078Z,99.99
2022-09-26T05:00:56.057Z,99.99
2022-09-26T05:01:56.067Z,99.99
2022-09-26T05:02:56.017Z,99.99
2022-09-26T05:03:55.999Z,99.99
2022-09-26T05:04:56.000Z,99.99
2022-09-26T05:05:56.019Z,99.99
2022-09-26T05:06:55.968Z,99.99
2022-09-26T05:07:55.958Z,99.99
2022-09-26T05:08:55.949Z,99.99
2022-09-26T05:09:55.938Z,99.99
2022-09-26T05:10:55.921Z,99.99
2022-09-26T05:11:55.947Z,99.99
2022-09-26T05:12:55.900Z,99.99
2022-09-26T05:13:55.891Z,99.99
2022-09-26T05:14:55.882Z,99.99
2022-09-26T05:15:55.963Z,99.99
2022-09-26T05:16:55.873Z,99.99
2022-09-26T05:17:55.890Z,99.99
2022-09-26T05:18:55.843Z,99.99
2022-09-26T05:19:55.832Z,99.99
2022-09-26T05:20:55.820Z,99.99
2022-09-26T05:21:55.814Z,99.99
2022-09-26T05:22:55.800Z,99.99
2022-09-26T05:23:55.824Z,99.99
2022-09-26T05:24:55.783Z,99.99
2022-09-26T05:25:55.772Z,99.99
2022-09-26T05:26:55.755Z,99.99
2022-09-26T05:27:55.744Z,99.99
2022-09-26T05:28:55.733Z,99.99
2022-09-26T05:29:55.753Z,99.99
2022-09-26T05:30:55.716Z,99.99
2022-09-26T05:31:55.740Z,99.99
2022-09-26T05:32:55.695Z,99.99
2022-09-26T05:33:55.685Z,99.99
2022-09-26T05:34:55.679Z,99.99
2022-09-26T05:35:55.699Z,99.99
2022-09-26T05:36:55.657Z,99.99
2022-09-26T05:37:55.635Z,99.99
2022-09-26T05:38:55.627Z,99.99
2022-09-26T05:39:55.634Z,99.99
2022-09-26T05:40:55.671Z,99.99
2022-09-26T05:41:55.635Z,99.99
2022-09-26T05:42:55.589Z,99.99
2022-09-26T05:43:55.588Z,99.99
2022-09-26T05:44:55.577Z,99.99
2022-09-26T05:45:55.557Z,99.99
2022-09-26T05:46:55.604Z,99.99
2022-09-26T05:47:55.569Z,99.99
2022-09-26T05:48:55.529Z,99.99
2022-09-26T05:49:55.528Z,99.99
2022-09-26T05:50:55.508Z,99.99
2022-09-26T05:51:55.499Z,99.99
2022-09-26T05:52:55.487Z,99.99
2022-09-26T05:53:55.510Z,99.99
2022-09-26T05:54:55.461Z,99.99
2022-09-26T05:55:55.462Z,99.99
2022-09-26T05:56:55.449Z,99.99
2022-09-26T05:57:55.432Z,99.99
2022-09-26T05:58:55.417Z,99.99
2022-09-26T05:59:55.449Z,99.99
2022-09-26T06:00:55.481Z,99.99
2022-09-26T06:01:55.521Z,99.99
2022-09-26T06:02:55.383Z,99.99
2022-09-26T06:03:55.383Z,99.99
2022-09-26T06:04:55.366Z,99.99
2022-09-26T06:05:55.381Z,99.99
2022-09-26T06:06:55.341Z,99.99
2022-09-26T06:07:55.332Z,99.99
2022-09-26T06:08:55.323Z,99.99
2022-09-26T06:09:55.303Z,99.99
2022-09-26T06:10:55.293Z,99.99
2022-09-26T06:11:55.327Z,99.99
2022-09-26T06:12:55.274Z,99.99
2022-09-26T06:13:55.271Z,99.99
2022-09-26T06:14:55.253Z,99.99
2022-09-26T06:15:55.260Z,99.99
2022-09-26T06:16:55.309Z,99.99
2022-09-26T06:17:55.262Z,99.99
2022-09-26T06:18:55.215Z,99.99
2022-09-26T06:19:55.206Z,99.99
2022-09-26T06:20:55.188Z,99.99
2022-09-26T06:21:55.184Z,99.99
2022-09-26T06:22:55.174Z,99.99
2022-09-26T06:23:55.186Z,99.99
2022-09-26T06:24:55.146Z,99.99
2022-09-26T06:25:55.146Z,99.99
2022-09-26T06:26:55.136Z,99.99
2022-09-26T06:27:59.108Z,99.99
2022-09-26T06:28:56.138Z,99.99
2022-09-26T06:29:55.105Z,99.99
2022-09-26T06:30:55.087Z,99.99
2022-09-26T06:31:55.189Z,99.99
2022-09-26T06:32:55.068Z,99.99
2022-09-26T06:33:55.068Z,99.99
2022-09-26T06:34:55.079Z,99.99
2022-09-26T06:35:55.043Z,99.99
2022-09-26T06:36:55.029Z,99.99
2022-09-26T06:37:55.019Z,99.99
2022-09-26T06:38:55.010Z,99.99
2022-09-26T06:39:59.214Z,99.99
2022-09-26T06:40:55.071Z,99.99
2022-09-26T06:41:54.979Z,99.99
2022-09-26T06:42:54.967Z,99.99
2022-09-26T06:43:54.952Z,99.99
2022-09-26T06:44:54.948Z,99.99
2022-09-26T06:45:54.934Z,99.99
2022-09-26T06:46:55.040Z,99.99
2022-09-26T06:47:54.910Z,99.99
2022-09-26T06:48:54.902Z,99.99
2022-09-26T06:49:54.905Z,99.99
2022-09-26T06:50:54.883Z,99.99
2022-09-26T06:51:54.872Z,99.99
2022-09-26T06:52:54.893Z,99.99
2022-09-26T06:53:54.853Z,99.99
2022-09-26T06:54:54.835Z,99.99
2022-09-26T06:55:54.844Z,99.99
2022-09-26T06:56:54.816Z,99.99
2022-09-26T06:57:54.814Z,99.99
2022-09-26T06:58:54.831Z,99.99
2022-09-26T06:59:54.793Z,99.99
2022-09-26T07:00:54.898Z,99.99
2022-09-26T07:01:54.916Z,99.99
2022-09-26T07:02:54.759Z,99.99
2022-09-26T07:03:54.747Z,99.99
2022-09-26T07:04:54.777Z,99.99
2022-09-26T07:05:54.726Z,99.99
2022-09-26T07:06:54.715Z,99.99
2022-09-26T07:07:54.706Z,99.99
2022-09-26T07:09:04.706Z,99.99
2022-09-26T07:09:55.706Z,99.99
2022-09-26T07:10:54.688Z,99.99
2022-09-26T07:12:14.801Z,99.99
2022-09-26T07:12:55.648Z,99.99
2022-09-26T07:13:54.645Z,99.99
2022-09-26T07:14:54.629Z,99.99
2022-09-26T07:15:54.711Z,99.99
2022-09-26T07:16:54.609Z,99.99
2022-09-26T07:17:54.601Z,99.99
2022-09-26T07:18:54.646Z,99.99
2022-09-26T07:19:54.580Z,99.99
2022-09-26T07:20:56.768Z,99.99
2022-09-26T07:21:54.590Z,99.99
2022-09-26T07:22:54.548Z,99.99
2022-09-26T07:23:54.543Z,99.99
2022-09-26T07:24:54.531Z,99.99
2022-09-26T07:25:54.514Z,99.99
2022-09-26T07:26:54.502Z,99.99
2022-09-26T07:27:54.532Z,99.99
2022-09-26T07:28:55.168Z,99.99
2022-09-26T07:29:54.471Z,99.99
2022-09-26T07:30:54.463Z,99.99
2022-09-26T07:31:54.478Z,99.99
2022-09-26T07:32:54.441Z,99.99
2022-09-26T07:33:54.470Z,99.99
2022-09-26T07:34:54.422Z,99.99
2022-09-26T07:35:54.432Z,99.99
2022-09-26T07:36:54.393Z,99.99
2022-09-26T07:37:54.395Z,99.99
2022-09-26T07:38:54.383Z,99.99
2022-09-26T07:39:58.199Z,99.99
2022-09-26T07:40:55.433Z,99.99
2022-09-26T07:41:54.354Z,99.99
2022-09-26T07:43:09.546Z,99.99
2022-09-26T07:45:23.257Z,99.99
2022-09-26T07:45:55.306Z,99.99
2022-09-26T07:46:54.360Z,99.99
2022-09-26T07:47:54.297Z,99.99
2022-09-26T07:48:54.277Z,99.99
2022-09-26T07:49:54.276Z,99.99
2022-09-26T07:50:54.280Z,99.99
2022-09-26T07:51:54.296Z,99.99
2022-09-26T07:52:54.235Z,99.99
2022-09-26T07:53:54.227Z,99.99
2022-09-26T07:54:54.217Z,99.99
2022-09-26T07:55:54.209Z,99.99
2022-09-26T07:56:54.223Z,99.99
2022-09-26T07:57:54.199Z,99.99
2022-09-26T07:58:54.179Z,99.99
2022-09-26T07:59:54.170Z,99.99
2022-09-26T08:00:54.312Z,99.99
2022-09-26T08:01:54.211Z,99.99
2022-09-26T08:02:54.192Z,99.99
2022-09-26T08:03:54.127Z,99.98
2022-09-26T08:04:58.759Z,99.99
2022-09-26T08:05:55.102Z,99.98
2022-09-26T08:06:54.091Z,99.99
2022-09-26T08:07:54.086Z,99.99
2022-09-26T08:08:54.130Z,99.99
2022-09-26T08:09:54.052Z,99.99
2022-09-26T08:10:54.040Z,99.99
2022-09-26T08:11:54.041Z,98.29
2022-09-26T08:12:54.023Z,98.24
2022-09-26T08:13:54.015Z,99.99
2022-09-26T08:14:54.023Z,99.56
2022-09-26T08:15:54.090Z,99.99
2022-09-26T08:16:53.986Z,99.99
2022-09-26T08:17:53.966Z,99.99
2022-09-26T08:18:53.962Z,99.99
2022-09-26T08:19:53.954Z,99.99
2022-09-26T08:20:53.968Z,99.99
2022-09-26T08:21:53.926Z,99.99
2022-09-26T08:22:53.917Z,99.99
2022-09-26T08:23:53.908Z,99.84
2022-09-26T08:24:53.896Z,99.99
2022-09-26T08:25:53.888Z,99.99
2022-09-26T08:26:53.899Z,99.99
2022-09-26T08:27:53.873Z,99.84
2022-09-26T08:28:53.867Z,99.69
2022-09-26T08:29:53.851Z,99.18
2022-09-26T08:30:53.884Z,98.88
2022-09-26T08:31:53.890Z,97.91
2022-09-26T08:32:53.846Z,95.00
2022-09-26T08:33:53.799Z,96.47
2022-09-26T08:34:53.792Z,96.68
2022-09-26T08:35:53.788Z,98.11
2022-09-26T08:36:53.769Z,97.60
2022-09-26T08:37:53.764Z,96.11
2022-09-26T08:38:53.770Z,95.39
2022-09-26T08:39:53.743Z,96.98
2022-09-26T08:40:53.760Z,97.49
2022-09-26T08:41:53.725Z,96.68
2022-09-26T08:42:53.702Z,96.27
2022-09-26T08:43:53.693Z,96.84
2022-09-26T08:44:53.724Z,93.82
2022-09-26T08:45:53.672Z,94.89
2022-09-26T08:46:53.695Z,96.01
2022-09-26T08:47:53.654Z,95.09
2022-09-26T08:48:53.636Z,95.90
2022-09-26T08:49:53.643Z,97.85
2022-09-26T08:50:53.652Z,95.90
2022-09-26T08:51:53.637Z,96.98
2022-09-26T08:52:53.600Z,96.27
2022-09-26T08:53:53.595Z,93.55
2022-09-26T08:54:53.574Z,96.72
2022-09-26T08:55:53.576Z,94.42
2022-09-26T08:56:53.596Z,96.15
2022-09-26T08:57:53.548Z,95.07
2022-09-26T08:58:53.535Z,97.02
2022-09-26T08:59:53.528Z,98.04
2022-09-26T09:00:53.515Z,96.71
2022-09-26T09:01:53.640Z,97.53
2022-09-26T09:02:53.593Z,98.14
2022-09-26T09:03:53.490Z,98.80
2022-09-26T09:04:54.162Z,99.16
2022-09-26T09:05:53.467Z,99.62
2022-09-26T09:06:53.450Z,99.11
2022-09-26T09:07:53.446Z,98.70
2022-09-26T09:08:53.478Z,99.31
2022-09-26T09:09:53.419Z,99.31
2022-09-26T09:10:53.416Z,99.41
2022-09-26T09:11:53.403Z,99.31
2022-09-26T09:12:53.390Z,98.29
2022-09-26T09:13:53.383Z,98.70
2022-09-26T09:15:13.871Z,99.01
2022-09-26T09:15:54.418Z,99.21
2022-09-26T09:16:53.350Z,99.21
2022-09-26T09:17:53.343Z,99.21
2022-09-26T09:18:53.322Z,99.41
2022-09-26T09:19:53.332Z,99.46
2022-09-26T09:20:53.345Z,99.87
2022-09-26T09:21:53.290Z,99.87
2022-09-26T09:22:53.299Z,99.66
2022-09-26T09:23:53.273Z,99.98
2022-09-26T09:24:53.264Z,99.99
2022-09-26T09:25:53.349Z,99.99
2022-09-26T09:27:55.047Z,99.99
2022-09-26T09:28:53.226Z,99.99
2022-09-26T09:29:53.204Z,99.99
2022-09-26T09:30:53.235Z,99.99
2022-09-26T09:31:53.187Z,99.87
2022-09-26T09:32:53.223Z,99.77
2022-09-26T09:33:53.167Z,99.66
2022-09-26T09:34:54.073Z,99.66
2022-09-26T09:35:53.148Z,99.98
2022-09-26T09:36:53.140Z,99.99
2022-09-26T09:37:53.125Z,99.99
2022-09-26T09:38:53.139Z,99.99
2022-09-26T09:39:53.106Z,99.99
2022-09-26T09:40:53.153Z,99.99
2022-09-26T09:41:53.078Z,99.99
2022-09-26T09:42:53.072Z,99.66
2022-09-26T09:43:53.076Z,99.41
2022-09-26T09:44:53.098Z,99.62
2022-09-26T09:45:53.039Z,99.72
2022-09-26T09:46:53.123Z,99.62
2022-09-26T09:47:53.010Z,99.21
2022-09-26T09:48:53.016Z,99.52
2022-09-26T09:49:52.999Z,99.21
2022-09-26T09:50:53.010Z,99.11
2022-09-26T09:51:52.973Z,99.47
2022-09-26T09:52:52.970Z,99.78
2022-09-26T09:53:52.955Z,99.47
2022-09-26T09:54:52.942Z,99.16
2022-09-26T09:55:52.940Z,99.47
2022-09-26T09:56:53.006Z,99.98
2022-09-26T09:57:52.910Z,99.99
2022-09-26T09:58:52.923Z,99.63
2022-09-26T09:59:52.884Z,97.89
2022-09-26T10:00:52.883Z,97.79
2022-09-26T10:01:52.867Z,97.38
2022-09-26T10:02:52.954Z,98.36
2022-09-26T10:03:52.845Z,97.64
2022-09-26T10:04:52.831Z,98.05
2022-09-26T10:05:52.826Z,98.31
2022-09-26T10:06:52.815Z,97.90
2022-09-26T10:07:52.805Z,96.63
2022-09-26T10:08:52.835Z,97.14
2022-09-26T10:09:52.784Z,97.04
2022-09-26T10:10:52.787Z,97.09
2022-09-26T10:11:52.766Z,97.00
2022-09-26T10:12:52.764Z,95.36
2022-09-26T10:13:52.739Z,94.55
2022-09-26T10:14:52.779Z,94.24
2022-09-26T10:15:52.768Z,95.57
2022-09-26T10:16:52.709Z,94.34
2022-09-26T10:18:19.851Z,93.73
2022-09-26T10:18:53.688Z,93.43
2022-09-26T10:19:52.679Z,94.14
2022-09-26T10:20:52.690Z,93.06
2022-09-26T10:21:52.659Z,92.86
2022-09-26T10:22:52.650Z,94.38
2022-09-26T10:23:52.631Z,94.85
2022-09-26T10:24:52.630Z,94.45
2022-09-26T10:25:52.621Z,95.36
2022-09-26T10:26:52.632Z,95.57
2022-09-26T10:27:52.592Z,92.91
2022-09-26T10:28:52.584Z,91.18
2022-09-26T10:29:52.582Z,92.61
2022-09-26T10:30:52.621Z,93.63
2022-09-26T10:31:52.608Z,94.04
2022-09-26T10:32:56.253Z,93.43
2022-09-26T10:33:52.532Z,90.88
2022-09-26T10:34:52.524Z,91.49
2022-09-26T10:35:52.514Z,92.81
2022-09-26T10:36:52.504Z,94.45
2022-09-26T10:37:52.495Z,94.90
2022-09-26T10:38:52.513Z,93.51
2022-09-26T10:39:52.466Z,94.84
2022-09-26T10:40:52.530Z,95.35
2022-09-26T10:41:52.458Z,95.31
2022-09-26T10:42:52.439Z,93.00
2022-09-26T10:43:52.426Z,92.86
2022-09-26T10:44:52.457Z,91.88
2022-09-26T10:45:52.414Z,94.18
2022-09-26T10:46:52.475Z,93.62
2022-09-26T10:47:52.387Z,93.10
2022-09-26T10:48:52.387Z,94.33
2022-09-26T10:49:52.367Z,94.70
2022-09-26T10:50:52.395Z,95.51
2022-09-26T10:51:52.350Z,93.26
2022-09-26T10:52:52.339Z,93.98
2022-09-26T10:53:52.331Z,94.18
2022-09-26T10:54:52.327Z,94.38
2022-09-26T10:55:52.413Z,93.88
2022-09-26T10:56:52.336Z,94.59
2022-09-26T10:57:52.281Z,92.96
2022-09-26T10:58:52.285Z,93.51
2022-09-26T10:59:52.262Z,95.15
2022-09-26T11:00:52.262Z,95.20
2022-09-26T11:01:52.297Z,91.57
2022-09-26T11:02:52.266Z,93.41
2022-09-26T11:03:52.283Z,94.53
2022-09-26T11:04:52.222Z,94.70
2022-09-26T11:05:52.211Z,91.57
2022-09-26T11:06:52.199Z,93.77
2022-09-26T11:07:52.190Z,92.86
2022-09-26T11:08:52.196Z,92.65
2022-09-26T11:09:52.164Z,94.08
2022-09-26T11:10:52.154Z,93.22
2022-09-26T11:11:52.145Z,91.83
2022-09-26T11:12:52.139Z,93.37
2022-09-26T11:13:52.123Z,90.31
2022-09-26T11:14:52.147Z,90.51
2022-09-26T11:15:52.161Z,88.37
2022-09-26T11:16:52.103Z,88.57
2022-09-26T11:17:52.077Z,92.10
2022-09-26T11:18:52.786Z,92.91
2022-09-26T11:19:54.911Z,91.85
2022-09-26T11:20:52.085Z,87.88
2022-09-26T11:21:52.038Z,88.73
2022-09-26T11:22:52.056Z,90.36
2022-09-26T11:23:52.019Z,88.02
2022-09-26T11:24:52.006Z,88.84
2022-09-26T11:25:55.649Z,89.55
2022-09-26T11:26:53.017Z,87.82
2022-09-26T11:27:51.979Z,90.77
2022-09-26T11:28:51.969Z,88.53
2022-09-26T11:29:51.948Z,89.75
2022-09-26T11:30:51.979Z,91.69
2022-09-26T11:31:51.933Z,90.88
2022-09-26T11:32:51.951Z,92.30
2022-09-26T11:33:51.901Z,92.30
2022-09-26T11:34:51.922Z,91.35
2022-09-26T11:35:51.882Z,88.12
2022-09-26T11:36:51.881Z,88.73
2022-09-26T11:37:51.871Z,89.45
2022-09-26T11:38:51.881Z,91.28
2022-09-26T11:39:51.843Z,88.84
2022-09-26T11:40:51.879Z,87.30
2022-09-26T11:41:51.813Z,89.55
2022-09-26T11:42:51.805Z,90.57
2022-09-26T11:43:51.804Z,90.83
2022-09-26T11:44:51.812Z,88.28
2022-09-26T11:45:51.794Z,88.59
2022-09-26T11:46:51.819Z,87.06
2022-09-26T11:47:51.748Z,87.26
2022-09-26T11:48:51.746Z,87.67
2022-09-26T11:49:51.725Z,90.32
2022-09-26T11:50:51.746Z,90.42
2022-09-26T11:51:51.708Z,90.12
2022-09-26T11:52:51.697Z,91.75
2022-09-26T11:53:51.697Z,90.73
2022-09-26T11:54:51.686Z,88.53
2022-09-26T11:55:51.669Z,89.86
2022-09-26T11:56:51.689Z,90.16
2022-09-26T11:57:51.648Z,87.04
2022-09-26T11:58:51.638Z,89.08
2022-09-26T11:59:51.628Z,90.81
2022-09-26T12:00:51.642Z,91.43
2022-09-26T12:01:51.602Z,91.83
2022-09-26T12:02:51.758Z,88.88
2022-09-26T12:03:51.649Z,89.84
2022-09-26T12:04:51.571Z,86.06
2022-09-26T12:05:51.562Z,89.26
2022-09-26T12:06:51.564Z,88.76
2022-09-26T12:07:51.541Z,90.29
2022-09-26T12:08:51.572Z,92.84
2022-09-26T12:09:51.513Z,91.41
2022-09-26T12:10:51.520Z,92.54
2022-09-26T12:11:51.506Z,91.72
2022-09-26T12:12:51.493Z,91.00
2022-09-26T12:13:51.473Z,93.05
2022-09-26T12:14:51.505Z,90.84
2022-09-26T12:15:51.494Z,93.09
2022-09-26T12:16:51.451Z,90.33
2022-09-26T12:17:51.435Z,92.78
2022-09-26T12:18:51.433Z,92.72
2022-09-26T12:19:51.418Z,93.50
2022-09-26T12:20:51.446Z,92.47
2022-09-26T12:21:51.401Z,93.60
2022-09-26T12:22:51.386Z,94.32
2022-09-26T12:23:51.375Z,94.32
2022-09-26T12:24:51.368Z,93.80
2022-09-26T12:25:51.359Z,92.68
2022-09-26T12:26:51.385Z,92.37
2022-09-26T12:27:51.339Z,93.29
2022-09-26T12:28:51.328Z,93.66
2022-09-26T12:29:51.317Z,94.58
2022-09-26T12:30:51.335Z,93.15
2022-09-26T12:31:51.374Z,91.92
2022-09-26T12:32:51.323Z,91.72
2022-09-26T12:33:51.268Z,92.94
2022-09-26T12:34:51.267Z,92.43
2022-09-26T12:35:51.251Z,92.23
2022-09-26T12:36:51.249Z,94.58
2022-09-26T12:37:51.237Z,94.68
2022-09-26T12:38:56.328Z,93.76
2022-09-26T12:39:52.210Z,93.15
2022-09-26T12:40:51.264Z,92.13
2022-09-26T12:41:51.189Z,90.90
2022-09-26T12:42:51.182Z,92.33
2022-09-26T12:43:51.170Z,94.37
2022-09-26T12:44:51.193Z,93.76
2022-09-26T12:45:53.437Z,90.80
2022-09-26T12:46:51.206Z,90.39
2022-09-26T12:47:51.131Z,93.25
2022-09-26T12:48:51.114Z,92.94
2022-09-26T12:49:51.103Z,93.41
2022-09-26T12:50:51.144Z,91.78
2022-09-26T12:51:51.085Z,90.96
2022-09-26T12:52:51.085Z,91.98
2022-09-26T12:53:51.064Z,90.25
2022-09-26T12:54:51.066Z,90.55